Flight Track Log - Related Links

Times and Time Zones

All times are in EDT time to prevent confusion due to time zone crossing. See the N27XP flight status page for this flight to view local times or setup timezone preferences in your user account.

Time Position Orientation Groundspeed Altitude Reporting Facility
EDT Latitude Longitude Course Direction KTS MPH feet Rate Location/Type
Thu 10:26:28 35.4428 -79.5131 36° Northeast 256 295 9,600  Level Washington Center
Thu 10:27:14 35.4875 -79.4925 21° North 308 354 10,000 505 Climbing Washington Center
Thu 10:28:15 35.5806 -79.4483 21° North 355 409 10,500 1,388 Climbing Washington Center
Thu 10:29:00 35.6311 -79.4070 28° Northeast  Level FlightAware Approximate
Thu 10:29:28 35.6808 -79.3792 29° Northeast 344 396 13,100  Level Washington Center
Thu 10:30:00 35.7185 -79.3373 36° Northeast  Level FlightAware Approximate
Thu 10:30:26 35.7600 -79.3164 33° Northeast 349 402 14,900  Level Washington Center
Thu 10:31:00 35.8031 -79.2621 36° Northeast  Level FlightAware Approximate
Thu 10:31:27 35.8414 -79.2483 34° Northeast 349 402 17,100  Level Washington Center
Thu 10:32:27 35.9247 -79.1856 31° Northeast 349 402 18,600 1,636 Climbing Washington Center
Thu 10:33:28 36.0061 -79.1147 35° Northeast 349 402 20,400 1,765 Climbing Washington Center
Thu 10:34:26 36.0917 -79.0467 33° Northeast 354 407 22,100 1,866 Climbing Washington Center
Thu 10:35:27 36.1769 -78.9783 33° Northeast 361 415 24,100 1,884 Climbing Washington Center
Thu 10:36:27 36.2625 -78.9072 34° Northeast 361 415 25,900 1,664 Climbing Washington Center
Thu 10:37:26 36.3478 -78.8361 34° Northeast 361 415 27,400 1,350 Climbing Washington Center
Thu 10:38:27 36.4375 -78.7650 33° Northeast 361 415 28,600 793 Climbing Washington Center
Thu 10:39:27 36.5272 -78.6858 35° Northeast 379 436 29,000 200 Climbing Washington Center
Thu 10:40:27 36.6272 -78.6019 34° Northeast 408 470 29,000  Level Washington Center
Thu 10:41:26 36.7319 -78.5075 36° Northeast 434 499 29,000  Level Washington Center
Thu 10:42:26 36.8300 -78.4231 35° Northeast 463 533 29,000  Level Washington Center
Thu 10:43:27 36.9425 -78.3308 33° Northeast 476 548 29,000 -198 Level Washington Center
Thu 10:44:27 37.0553 -78.2361 34° Northeast 476 548 28,600 -595 Descending Washington Center
Thu 10:45:28 37.1806 -78.1336 33° Northeast 482 555 27,800 -706 Descending Washington Center
Thu 10:46:26 37.2847 -78.0456 34° Northeast 490 564 27,200 -403 Descending Washington Center
Thu 10:47:27 37.4100 -77.9372 34° Northeast 495 570 27,000 -99 Descending Washington Center
Thu 10:48:27 37.5258 -77.8778 22° Northeast 488 562 27,000  Level Washington Center
Thu 10:49:28 37.6725 -77.8378 12° North 477 549 27,000  Level Washington Center
Thu 10:50:27 37.8067 -77.7997 13° North 477 549 27,000  Level Washington Center
Thu 10:51:26 37.9386 -77.7667 11° North 484 557 27,000  Level Washington Center
Thu 10:52:26 38.0561 -77.7383 11° North 486 559 27,000  Level Washington Center
Thu 10:53:27 38.1922 -77.7053 11° North 486 559 27,000  Level Washington Center
Thu 10:54:27 38.3278 -77.7011 North 486 559 27,000  Level Washington Center
Thu 10:55:28 38.4628 -77.7289 351° North 481 554 27,000 -793 Level Washington Center
Thu 10:56:28 38.5950 -77.6847 15° North 476 548 25,400 -670 Descending Washington Center
Thu 10:58:27 38.8531 -77.5828 17° North 476 548 25,000 -133 Descending Washington Center
Thu 10:59:28 38.9992 -77.5761 North 481 554 25,000  Level Washington Center
Thu 11:00:28 39.1328 -77.5717 North 481 554 25,000 -254 Level Washington Center
Thu 11:01:26 39.2683 -77.5647 North 481 554 24,500 -1,271 Descending Washington Center
Thu 11:02:26 39.3933 -77.5653 360° North 469 540 22,500 -2,083 Descending Washington Center
Thu 11:03:27 39.5094 -77.6036 346° North 452 520 20,300 -1,721 Descending Washington Center
Thu 11:04:28 39.6169 -77.6469 343° North 425 489 19,000 -645 Descending Washington Center
Thu 11:05:28 39.7297 -77.6367 North 410 472 19,000  Level Washington Center
Thu 11:06:53 39.8828 -77.5561 22° Northeast 388 447 19,000  Level New York Center
Thu 11:07:54 39.9508 -77.4600 47° Northeast 393 452 19,000  Level New York Center
Thu 11:08:54 40.0028 -77.3158 65° Northeast 393 452 19,000  Level New York Center
Thu 11:09:55 40.0450 -77.1947 65° Northeast 393 452 19,000  Level New York Center
Thu 11:10:55 40.0944 -77.0475 66° East 398 458 19,000  Level New York Center
Thu 11:11:56 40.1342 -76.9289 66° East 405 466 19,000 -50 Level New York Center
Thu 11:12:56 40.1836 -76.7783 67° East 410 472 18,900 -974 Descending New York Center
Thu 11:13:53 40.2250 -76.6594 65° Northeast 410 472 17,100 -1,866 Descending New York Center
Thu 11:14:55 40.2689 -76.5300 66° East 403 464 15,200 -2,164 Descending New York Center
Thu 11:15:55 40.3131 -76.3919 67° East 382 440 12,700 -2,033 Descending New York Center
Thu 11:16:56 40.3542 -76.2728 66° East 366 421 11,100 -843 Descending New York Center
Thu 11:17:56 40.3908 -76.1558 68° East 350 403 11,000 -450 Descending New York Center
Thu 11:18:56 40.4294 -76.0414 66° East 350 403 10,200 -1,008 Descending New York Center
Thu 11:19:55 40.4633 -75.9294 68° East 345 397 9,000 -600 Descending New York Center
Thu 11:20:56 40.5147 -75.8542 48° Northeast 287 330 9,000 -353 Level New York Center
Thu 11:21:54 40.5786 -75.8233 20° North 261 300 8,300 -1,462 Descending New York Center
Thu 11:22:55 40.5736 -75.7411 95° East 205 236 6,100 -2,281 Descending New York Center
Thu 11:23:55 40.5225 -75.6664 132° Southeast 222 255 3,700 -1,550 Descending New York Center
Thu 11:24:55 40.5586 -75.5978 55° Northeast 198 228 3,000 -595 Descending New York Center
Thu 11:25:56 40.5878 -75.5506 51° Northeast 176 203 2,500 -605 Descending New York Center
Thu 11:26:54 40.6081 -75.5139 54° Northeast 137 158 1,800 -661 Descending New York Center
Thu 11:27:54 40.6303 -75.4772 51° Northeast 122 140 1,200 3,570 Descending New York Center
Thu 11:28:55 40.6525 -75.4431 49° Northeast 122 140 9,000 3,836 Climbing New York Center
Thu 11:29:56 40.6744 -75.4117 47° Northeast 122 140 9,000  Level New York Center
Thu 11:30:56 40.6967 -75.3778 49° Northeast 122 140 9,000  Level New York Center
Thu 11:31:55 40.7144 -75.3514 48° Northeast 122 140 9,000  Level New York Center
Thu 11:33:57 40.7144 -75.3514 11° North 122 140 9,000  Level New York Center

Login

Don't have an account? Register now (free) for customized features, flight alerts, and more!